sensor_id;sensor_type;location;lat;lon;timestamp;temperature;humidity
78366;HTU21D;67641;59.864;30.464;2023-08-06T00:00:16;27.96;38.35
78366;HTU21D;67641;59.864;30.464;2023-08-06T00:02:43;27.96;37.85
78366;HTU21D;67641;59.864;30.464;2023-08-06T00:05:09;27.96;38.06
78366;HTU21D;67641;59.864;30.464;2023-08-06T00:07:35;27.93;38.07
78366;HTU21D;67641;59.864;30.464;2023-08-06T00:10:02;27.96;37.10
78366;HTU21D;67641;59.864;30.464;2023-08-06T00:12:28;27.97;36.98
78366;HTU21D;67641;59.864;30.464;2023-08-06T00:14:54;27.87;36.60
78366;HTU21D;67641;59.864;30.464;2023-08-06T00:20:12;27.80;35.69
78366;HTU21D;67641;59.864;30.464;2023-08-06T00:22:38;27.78;35.10
78366;HTU21D;67641;59.864;30.464;2023-08-06T00:25:05;27.78;35.18
78366;HTU21D;67641;59.864;30.464;2023-08-06T00:27:31;27.74;34.67
78366;HTU21D;67641;59.864;30.464;2023-08-06T00:29:58;27.72;35.05
78366;HTU21D;67641;59.864;30.464;2023-08-06T00:39:49;27.67;33.80
78366;HTU21D;67641;59.864;30.464;2023-08-06T00:47:10;27.66;32.97
78366;HTU21D;67641;59.864;30.464;2023-08-06T00:56:46;27.61;31.50
78366;HTU21D;67641;59.864;30.464;2023-08-06T00:59:13;27.56;31.24
78366;HTU21D;67641;59.864;30.464;2023-08-06T01:01:39;27.58;31.42
78366;HTU21D;67641;59.864;30.464;2023-08-06T01:04:06;27.60;30.51
78366;HTU21D;67641;59.864;30.464;2023-08-06T01:09:31;27.61;31.16
78366;HTU21D;67641;59.864;30.464;2023-08-06T01:17:52;27.53;29.51
78366;HTU21D;67641;59.864;30.464;2023-08-06T01:20:18;27.52;28.14
78366;HTU21D;67641;59.864;30.464;2023-08-06T01:22:45;27.50;28.94
78366;HTU21D;67641;59.864;30.464;2023-08-06T01:25:23;27.46;28.60
78366;HTU21D;67641;59.864;30.464;2023-08-06T01:30:41;27.44;27.60
78366;HTU21D;67641;59.864;30.464;2023-08-06T01:33:47;27.45;29.06
78366;HTU21D;67641;59.864;30.464;2023-08-06T01:37:24;27.42;29.45
78366;HTU21D;67641;59.864;30.464;2023-08-06T01:40:12;27.35;28.63
78366;HTU21D;67641;59.864;30.464;2023-08-06T01:42:47;27.32;27.74
78366;HTU21D;67641;59.864;30.464;2023-08-06T01:45:22;27.34;27.94
78366;HTU21D;67641;59.864;30.464;2023-08-06T01:47:56;27.26;27.34
78366;HTU21D;67641;59.864;30.464;2023-08-06T01:50:33;27.21;28.38
78366;HTU21D;67641;59.864;30.464;2023-08-06T01:55:49;27.06;28.36
78366;HTU21D;67641;59.864;30.464;2023-08-06T01:58:21;27.01;27.90
78366;HTU21D;67641;59.864;30.464;2023-08-06T02:00:54;26.87;27.40
78366;HTU21D;67641;59.864;30.464;2023-08-06T02:03:26;26.89;27.68
78366;HTU21D;67641;59.864;30.464;2023-08-06T02:06:01;26.92;27.84
78366;HTU21D;67641;59.864;30.464;2023-08-06T02:08:33;26.93;27.84
78366;HTU21D;67641;59.864;30.464;2023-08-06T02:14:06;26.96;27.12
78366;HTU21D;67641;59.864;30.464;2023-08-06T02:16:57;26.95;27.72
78366;HTU21D;67641;59.864;30.464;2023-08-06T02:19:38;26.87;27.97
78366;HTU21D;67641;59.864;30.464;2023-08-06T02:22:11;26.81;26.95
78366;HTU21D;67641;59.864;30.464;2023-08-06T02:24:43;26.80;26.56
78366;HTU21D;67641;59.864;30.464;2023-08-06T02:27:15;26.78;26.70
78366;HTU21D;67641;59.864;30.464;2023-08-06T02:29:52;26.75;27.02
78366;HTU21D;67641;59.864;30.464;2023-08-06T02:34:38;26.65;26.68
78366;HTU21D;67641;59.864;30.464;2023-08-06T02:37:16;26.60;26.29
78366;HTU21D;67641;59.864;30.464;2023-08-06T02:39:51;26.58;25.60
78366;HTU21D;67641;59.864;30.464;2023-08-06T02:42:23;26.65;25.72
78366;HTU21D;67641;59.864;30.464;2023-08-06T02:44:58;26.63;25.59
78366;HTU21D;67641;59.864;30.464;2023-08-06T02:47:30;26.56;26.21
78366;HTU21D;67641;59.864;30.464;2023-08-06T02:50:08;26.61;26.28
78366;HTU21D;67641;59.864;30.464;2023-08-06T02:52:43;26.53;26.25
78366;HTU21D;67641;59.864;30.464;2023-08-06T02:56:33;26.49;24.99
78366;HTU21D;67641;59.864;30.464;2023-08-06T02:59:04;26.50;25.69
78366;HTU21D;67641;59.864;30.464;2023-08-06T03:01:36;26.48;25.36
78366;HTU21D;67641;59.864;30.464;2023-08-06T03:04:22;26.47;25.56
78366;HTU21D;67641;59.864;30.464;2023-08-06T03:07:09;26.45;24.69
78366;HTU21D;67641;59.864;30.464;2023-08-06T03:10:10;26.48;24.98
78366;HTU21D;67641;59.864;30.464;2023-08-06T03:15:38;26.46;24.31
78366;HTU21D;67641;59.864;30.464;2023-08-06T03:18:10;26.47;24.17
78366;HTU21D;67641;59.864;30.464;2023-08-06T03:20:42;26.45;24.25
78366;HTU21D;67641;59.864;30.464;2023-08-06T03:23:14;26.47;24.17
78366;HTU21D;67641;59.864;30.464;2023-08-06T03:25:46;26.43;23.21
78366;HTU21D;67641;59.864;30.464;2023-08-06T03:28:18;26.38;24.36
78366;HTU21D;67641;59.864;30.464;2023-08-06T03:31:31;26.37;23.43
78366;HTU21D;67641;59.864;30.464;2023-08-06T03:37:31;26.26;24.19
78366;HTU21D;67641;59.864;30.464;2023-08-06T03:40:03;26.25;24.16
78366;HTU21D;67641;59.864;30.464;2023-08-06T03:42:36;26.28;24.11
78366;HTU21D;67641;59.864;30.464;2023-08-06T03:45:08;26.30;23.92
78366;HTU21D;67641;59.864;30.464;2023-08-06T03:47:40;26.34;24.63
78366;HTU21D;67641;59.864;30.464;2023-08-06T03:50:12;26.41;23.41
78366;HTU21D;67641;59.864;30.464;2023-08-06T03:52:44;26.48;22.14
78366;HTU21D;67641;59.864;30.464;2023-08-06T03:56:20;26.54;23.34
78366;HTU21D;67641;59.864;30.464;2023-08-06T03:58:52;26.56;23.95
78366;HTU21D;67641;59.864;30.464;2023-08-06T04:01:24;26.57;23.91
78366;HTU21D;67641;59.864;30.464;2023-08-06T04:03:56;26.62;22.30
78366;HTU21D;67641;59.864;30.464;2023-08-06T04:06:27;26.64;23.91
78366;HTU21D;67641;59.864;30.464;2023-08-06T04:08:59;26.70;23.97
78366;HTU21D;67641;59.864;30.464;2023-08-06T04:11:30;26.70;23.74
78366;HTU21D;67641;59.864;30.464;2023-08-06T04:16:56;26.78;23.95
78366;HTU21D;67641;59.864;30.464;2023-08-06T04:19:28;26.80;25.07
78366;HTU21D;67641;59.864;30.464;2023-08-06T04:21:59;26.81;25.99
78366;HTU21D;67641;59.864;30.464;2023-08-06T04:24:31;26.84;24.92
78366;HTU21D;67641;59.864;30.464;2023-08-06T04:27:03;26.85;24.88
78366;HTU21D;67641;59.864;30.464;2023-08-06T04:29:34;26.90;25.14
78366;HTU21D;67641;59.864;30.464;2023-08-06T04:32:08;26.94;24.69
78366;HTU21D;67641;59.864;30.464;2023-08-06T04:34:40;26.98;25.75
78366;HTU21D;67641;59.864;30.464;2023-08-06T04:38:49;26.99;25.20
78366;HTU21D;67641;59.864;30.464;2023-08-06T04:41:20;27.04;25.18
78366;HTU21D;67641;59.864;30.464;2023-08-06T04:43:52;27.08;25.18
78366;HTU21D;67641;59.864;30.464;2023-08-06T04:46:24;27.06;23.57
78366;HTU21D;67641;59.864;30.464;2023-08-06T04:48:56;27.08;23.92
78366;HTU21D;67641;59.864;30.464;2023-08-06T04:51:28;27.13;22.00
78366;HTU21D;67641;59.864;30.464;2023-08-06T04:53:59;27.17;22.25
78366;HTU21D;67641;59.864;30.464;2023-08-06T04:58:55;27.16;24.50
78366;HTU21D;67641;59.864;30.464;2023-08-06T05:01:28;27.22;23.92
78366;HTU21D;67641;59.864;30.464;2023-08-06T05:04:00;27.15;23.40
78366;HTU21D;67641;59.864;30.464;2023-08-06T05:06:31;27.21;24.98
78366;HTU21D;67641;59.864;30.464;2023-08-06T05:09:03;27.24;25.10
78366;HTU21D;67641;59.864;30.464;2023-08-06T05:11:35;27.26;23.56
78366;HTU21D;67641;59.864;30.464;2023-08-06T05:14:07;27.28;24.68
78366;HTU21D;67641;59.864;30.464;2023-08-06T05:16:39;27.26;22.22
78366;HTU21D;67641;59.864;30.464;2023-08-06T05:21:29;27.30;22.80
78366;HTU21D;67641;59.864;30.464;2023-08-06T05:24:01;27.30;23.88
78366;HTU21D;67641;59.864;30.464;2023-08-06T05:26:32;27.34;23.91
78366;HTU21D;67641;59.864;30.464;2023-08-06T05:29:04;27.31;22.60
78366;HTU21D;67641;59.864;30.464;2023-08-06T05:31:35;27.37;22.26
78366;HTU21D;67641;59.864;30.464;2023-08-06T05:34:07;27.45;23.10
78366;HTU21D;67641;59.864;30.464;2023-08-06T05:36:39;27.49;23.40
78366;HTU21D;67641;59.864;30.464;2023-08-06T05:39:10;27.55;23.57
78366;HTU21D;67641;59.864;30.464;2023-08-06T05:44:17;27.63;23.14
78366;HTU21D;67641;59.864;30.464;2023-08-06T05:46:49;27.65;22.35
78366;HTU21D;67641;59.864;30.464;2023-08-06T05:49:20;27.67;24.21
78366;HTU21D;67641;59.864;30.464;2023-08-06T05:51:52;27.67;22.86
78366;HTU21D;67641;59.864;30.464;2023-08-06T05:54:25;27.70;25.38
78366;HTU21D;67641;59.864;30.464;2023-08-06T05:56:57;27.68;23.93
78366;HTU21D;67641;59.864;30.464;2023-08-06T05:59:28;27.73;24.41
78366;HTU21D;67641;59.864;30.464;2023-08-06T06:03:54;27.75;24.29
78366;HTU21D;67641;59.864;30.464;2023-08-06T06:06:26;27.76;25.50
78366;HTU21D;67641;59.864;30.464;2023-08-06T06:08:58;27.78;26.91
78366;HTU21D;67641;59.864;30.464;2023-08-06T06:11:30;27.81;27.65
78366;HTU21D;67641;59.864;30.464;2023-08-06T06:14:02;27.81;26.01
78366;HTU21D;67641;59.864;30.464;2023-08-06T06:16:34;27.83;26.34
78366;HTU21D;67641;59.864;30.464;2023-08-06T06:19:05;27.82;25.74
78366;HTU21D;67641;59.864;30.464;2023-08-06T06:23:43;27.78;25.30
78366;HTU21D;67641;59.864;30.464;2023-08-06T06:26:15;27.79;25.75
78366;HTU21D;67641;59.864;30.464;2023-08-06T06:28:47;27.79;25.17
78366;HTU21D;67641;59.864;30.464;2023-08-06T06:31:18;27.84;25.44
78366;HTU21D;67641;59.864;30.464;2023-08-06T06:33:50;27.89;26.64
78366;HTU21D;67641;59.864;30.464;2023-08-06T06:36:21;27.91;26.30
78366;HTU21D;67641;59.864;30.464;2023-08-06T06:38:54;27.91;23.91
78366;HTU21D;67641;59.864;30.464;2023-08-06T06:41:26;27.97;25.81
78366;HTU21D;67641;59.864;30.464;2023-08-06T06:45:45;28.02;24.02
78366;HTU21D;67641;59.864;30.464;2023-08-06T06:48:16;28.03;24.59
78366;HTU21D;67641;59.864;30.464;2023-08-06T06:50:48;28.06;24.11
78366;HTU21D;67641;59.864;30.464;2023-08-06T06:53:19;28.05;24.88
78366;HTU21D;67641;59.864;30.464;2023-08-06T06:55:51;28.09;24.11
78366;HTU21D;67641;59.864;30.464;2023-08-06T06:58:23;28.13;23.90
78366;HTU21D;67641;59.864;30.464;2023-08-06T07:00:54;28.13;23.14
78366;HTU21D;67641;59.864;30.464;2023-08-06T07:03:26;28.14;23.97
78366;HTU21D;67641;59.864;30.464;2023-08-06T07:08:53;28.23;23.17
78366;HTU21D;67641;59.864;30.464;2023-08-06T07:11:24;28.27;24.66
78366;HTU21D;67641;59.864;30.464;2023-08-06T07:13:57;28.30;24.17
78366;HTU21D;67641;59.864;30.464;2023-08-06T07:16:32;28.28;23.94
78366;HTU21D;67641;59.864;30.464;2023-08-06T07:19:05;28.30;24.93
78366;HTU21D;67641;59.864;30.464;2023-08-06T07:21:37;28.32;25.70
78366;HTU21D;67641;59.864;30.464;2023-08-06T07:24:09;28.34;24.27
78366;HTU21D;67641;59.864;30.464;2023-08-06T07:28:29;28.40;26.02
78366;HTU21D;67641;59.864;30.464;2023-08-06T07:31:03;28.41;25.18
78366;HTU21D;67641;59.864;30.464;2023-08-06T07:33:35;28.44;24.67
78366;HTU21D;67641;59.864;30.464;2023-08-06T07:36:11;28.44;24.39
78366;HTU21D;67641;59.864;30.464;2023-08-06T07:38:43;28.46;25.48
78366;HTU21D;67641;59.864;30.464;2023-08-06T07:41:15;28.49;26.42
78366;HTU21D;67641;59.864;30.464;2023-08-06T07:43:47;28.52;27.36
78366;HTU21D;67641;59.864;30.464;2023-08-06T07:47:04;28.57;28.37
78366;HTU21D;67641;59.864;30.464;2023-08-06T07:49:36;28.57;28.71
78366;HTU21D;67641;59.864;30.464;2023-08-06T07:52:08;28.60;30.10
78366;HTU21D;67641;59.864;30.464;2023-08-06T07:54:40;28.63;29.00
78366;HTU21D;67641;59.864;30.464;2023-08-06T07:57:12;28.67;29.74
78366;HTU21D;67641;59.864;30.464;2023-08-06T07:59:45;28.69;30.56
78366;HTU21D;67641;59.864;30.464;2023-08-06T08:02:17;28.71;31.10
78366;HTU21D;67641;59.864;30.464;2023-08-06T08:06:41;28.75;31.16
78366;HTU21D;67641;59.864;30.464;2023-08-06T08:09:16;28.77;31.41
78366;HTU21D;67641;59.864;30.464;2023-08-06T08:11:48;28.75;31.57
78366;HTU21D;67641;59.864;30.464;2023-08-06T08:14:19;28.71;32.12
78366;HTU21D;67641;59.864;30.464;2023-08-06T08:16:51;28.76;32.34
78366;HTU21D;67641;59.864;30.464;2023-08-06T08:19:23;28.79;32.36
78366;HTU21D;67641;59.864;30.464;2023-08-06T08:21:55;28.78;31.83
78366;HTU21D;67641;59.864;30.464;2023-08-06T08:25:31;28.84;32.90
78366;HTU21D;67641;59.864;30.464;2023-08-06T08:28:04;28.88;33.22
78366;HTU21D;67641;59.864;30.464;2023-08-06T08:30:36;28.86;33.38
78366;HTU21D;67641;59.864;30.464;2023-08-06T08:33:08;28.91;34.48
78366;HTU21D;67641;59.864;30.464;2023-08-06T08:35:40;28.98;34.92
78366;HTU21D;67641;59.864;30.464;2023-08-06T08:38:11;29.00;34.60
78366;HTU21D;67641;59.864;30.464;2023-08-06T08:40:46;29.03;35.16
78366;HTU21D;67641;59.864;30.464;2023-08-06T08:45:12;29.06;34.82
78366;HTU21D;67641;59.864;30.464;2023-08-06T08:47:45;29.08;35.41
78366;HTU21D;67641;59.864;30.464;2023-08-06T08:50:19;29.06;35.47
78366;HTU21D;67641;59.864;30.464;2023-08-06T08:52:52;29.11;35.82
78366;HTU21D;67641;59.864;30.464;2023-08-06T08:55:23;29.14;34.95
78366;HTU21D;67641;59.864;30.464;2023-08-06T08:57:55;29.20;35.57
78366;HTU21D;67641;59.864;30.464;2023-08-06T09:00:31;29.24;35.88
78366;HTU21D;67641;59.864;30.464;2023-08-06T09:03:16;29.32;36.32
78366;HTU21D;67641;59.864;30.464;2023-08-06T09:06:18;29.37;35.59
78366;HTU21D;67641;59.864;30.464;2023-08-06T09:09:08;29.42;35.82
78366;HTU21D;67641;59.864;30.464;2023-08-06T09:11:43;29.47;36.24
78366;HTU21D;67641;59.864;30.464;2023-08-06T09:14:17;29.53;36.53
78366;HTU21D;67641;59.864;30.464;2023-08-06T09:16:54;29.54;36.77
78366;HTU21D;67641;59.864;30.464;2023-08-06T09:19:27;29.50;37.05
78366;HTU21D;67641;59.864;30.464;2023-08-06T09:21:59;29.54;37.49
78366;HTU21D;67641;59.864;30.464;2023-08-06T09:26:01;29.50;36.79
78366;HTU21D;67641;59.864;30.464;2023-08-06T09:28:37;29.60;38.65
78366;HTU21D;67641;59.864;30.464;2023-08-06T09:31:10;29.64;37.91
78366;HTU21D;67641;59.864;30.464;2023-08-06T09:33:42;29.64;39.79
78366;HTU21D;67641;59.864;30.464;2023-08-06T09:36:15;29.68;39.01
78366;HTU21D;67641;59.864;30.464;2023-08-06T09:38:47;29.87;39.85
78366;HTU21D;67641;59.864;30.464;2023-08-06T09:41:28;29.95;39.07
78366;HTU21D;67641;59.864;30.464;2023-08-06T09:44:00;29.97;39.12
78366;HTU21D;67641;59.864;30.464;2023-08-06T09:47:57;30.16;38.69
78366;HTU21D;67641;59.864;30.464;2023-08-06T09:50:30;30.17;37.87
78366;HTU21D;67641;59.864;30.464;2023-08-06T09:53:07;30.32;37.97
78366;HTU21D;67641;59.864;30.464;2023-08-06T09:55:41;30.47;36.85
78366;HTU21D;67641;59.864;30.464;2023-08-06T09:58:13;30.55;36.54
78366;HTU21D;67641;59.864;30.464;2023-08-06T10:00:45;30.71;36.24
78366;HTU21D;67641;59.864;30.464;2023-08-06T10:03:17;30.93;35.70
78366;HTU21D;67641;59.864;30.464;2023-08-06T10:05:49;31.07;36.08
78366;HTU21D;67641;59.864;30.464;2023-08-06T10:09:45;31.37;35.54
78366;HTU21D;67641;59.864;30.464;2023-08-06T10:12:17;31.56;35.20
78366;HTU21D;67641;59.864;30.464;2023-08-06T10:14:53;31.65;35.15
78366;HTU21D;67641;59.864;30.464;2023-08-06T10:17:25;31.83;35.15
78366;HTU21D;67641;59.864;30.464;2023-08-06T10:19:59;31.89;35.17
78366;HTU21D;67641;59.864;30.464;2023-08-06T10:22:33;32.15;34.68
78366;HTU21D;67641;59.864;30.464;2023-08-06T10:25:05;32.30;34.26
78366;HTU21D;67641;59.864;30.464;2023-08-06T10:29:47;32.77;34.04
78366;HTU21D;67641;59.864;30.464;2023-08-06T10:32:18;32.74;34.30
78366;HTU21D;67641;59.864;30.464;2023-08-06T10:34:57;33.02;33.93
78366;HTU21D;67641;59.864;30.464;2023-08-06T10:37:36;33.31;34.37
78366;HTU21D;67641;59.864;30.464;2023-08-06T10:40:05;33.63;34.09
78366;HTU21D;67641;59.864;30.464;2023-08-06T10:42:33;34.08;33.10
78366;HTU21D;67641;59.864;30.464;2023-08-06T10:45:17;34.51;31.97
78366;HTU21D;67641;59.864;30.464;2023-08-06T10:47:45;35.03;31.89
78366;HTU21D;67641;59.864;30.464;2023-08-06T10:52:26;36.00;30.31
78366;HTU21D;67641;59.864;30.464;2023-08-06T10:54:55;36.66;29.06
78366;HTU21D;67641;59.864;30.464;2023-08-06T10:57:22;37.04;28.14
78366;HTU21D;67641;59.864;30.464;2023-08-06T10:59:51;37.85;26.55
78366;HTU21D;67641;59.864;30.464;2023-08-06T11:02:20;38.86;25.06
78366;HTU21D;67641;59.864;30.464;2023-08-06T11:04:50;40.31;22.54
78366;HTU21D;67641;59.864;30.464;2023-08-06T11:07:20;42.11;20.06
78366;HTU21D;67641;59.864;30.464;2023-08-06T11:09:50;44.44;17.09
78366;HTU21D;67641;59.864;30.464;2023-08-06T11:14:18;47.10;13.92
78366;HTU21D;67641;59.864;30.464;2023-08-06T11:16:45;48.07;12.95
78366;HTU21D;67641;59.864;30.464;2023-08-06T11:19:12;49.00;12.03
78366;HTU21D;67641;59.864;30.464;2023-08-06T11:21:42;50.04;11.09
78366;HTU21D;67641;59.864;30.464;2023-08-06T11:24:10;50.00;11.00
78366;HTU21D;67641;59.864;30.464;2023-08-06T11:26:37;51.02;10.38
78366;HTU21D;67641;59.864;30.464;2023-08-06T11:29:06;52.13;9.69
78366;HTU21D;67641;59.864;30.464;2023-08-06T11:31:33;51.74;9.65
78366;HTU21D;67641;59.864;30.464;2023-08-06T11:35:59;53.09;8.72
78366;HTU21D;67641;59.864;30.464;2023-08-06T11:38:28;53.74;8.26
78366;HTU21D;67641;59.864;30.464;2023-08-06T11:40:55;53.53;8.25
78366;HTU21D;67641;59.864;30.464;2023-08-06T11:43:23;53.49;8.18
78366;HTU21D;67641;59.864;30.464;2023-08-06T11:45:50;53.00;8.24
78366;HTU21D;67641;59.864;30.464;2023-08-06T11:48:20;53.33;8.32
78366;HTU21D;67641;59.864;30.464;2023-08-06T11:50:46;53.89;8.02
78366;HTU21D;67641;59.864;30.464;2023-08-06T11:53:14;53.81;7.63
78366;HTU21D;67641;59.864;30.464;2023-08-06T11:57:49;54.96;6.71
78366;HTU21D;67641;59.864;30.464;2023-08-06T12:00:16;54.11;7.20
78366;HTU21D;67641;59.864;30.464;2023-08-06T12:02:49;55.11;6.36
78366;HTU21D;67641;59.864;30.464;2023-08-06T12:05:29;54.51;6.66
78366;HTU21D;67641;59.864;30.464;2023-08-06T12:07:58;54.19;6.88
78366;HTU21D;67641;59.864;30.464;2023-08-06T12:10:26;52.07;7.91
78366;HTU21D;67641;59.864;30.464;2023-08-06T12:12:53;50.39;9.27
78366;HTU21D;67641;59.864;30.464;2023-08-06T12:15:20;49.50;10.13
78366;HTU21D;67641;59.864;30.464;2023-08-06T12:20:20;48.26;10.23
78366;HTU21D;67641;59.864;30.464;2023-08-06T12:22:47;46.73;11.49
78366;HTU21D;67641;59.864;30.464;2023-08-06T12:25:14;45.78;11.76
78366;HTU21D;67641;59.864;30.464;2023-08-06T12:27:42;45.43;11.79
78366;HTU21D;67641;59.864;30.464;2023-08-06T12:30:10;44.95;12.66
78366;HTU21D;67641;59.864;30.464;2023-08-06T12:32:38;44.12;13.62
78366;HTU21D;67641;59.864;30.464;2023-08-06T12:35:08;43.79;14.05
78366;HTU21D;67641;59.864;30.464;2023-08-06T12:37:35;44.03;13.27
78366;HTU21D;67641;59.864;30.464;2023-08-06T12:42:37;44.01;13.45
78366;HTU21D;67641;59.864;30.464;2023-08-06T12:45:04;43.32;13.76
78366;HTU21D;67641;59.864;30.464;2023-08-06T12:47:31;43.00;14.21
78366;HTU21D;67641;59.864;30.464;2023-08-06T12:49:57;42.59;14.34
78366;HTU21D;67641;59.864;30.464;2023-08-06T12:52:24;42.69;14.08
78366;HTU21D;67641;59.864;30.464;2023-08-06T12:54:51;42.11;13.12
78366;HTU21D;67641;59.864;30.464;2023-08-06T12:57:17;41.98;12.98
78366;HTU21D;67641;59.864;30.464;2023-08-06T12:59:44;41.62;12.53
78366;HTU21D;67641;59.864;30.464;2023-08-06T13:04:47;41.14;13.99
78366;HTU21D;67641;59.864;30.464;2023-08-06T13:07:14;41.15;13.14
78366;HTU21D;67641;59.864;30.464;2023-08-06T13:09:40;41.17;13.02
78366;HTU21D;67641;59.864;30.464;2023-08-06T13:12:07;41.27;12.43
78366;HTU21D;67641;59.864;30.464;2023-08-06T13:14:34;41.17;12.39
78366;HTU21D;67641;59.864;30.464;2023-08-06T13:17:00;41.10;12.91
78366;HTU21D;67641;59.864;30.464;2023-08-06T13:19:28;41.10;12.76
78366;HTU21D;67641;59.864;30.464;2023-08-06T13:21:59;41.10;12.23
78366;HTU21D;67641;59.864;30.464;2023-08-06T13:27:03;40.53;12.40
78366;HTU21D;67641;59.864;30.464;2023-08-06T13:29:30;40.53;12.97
78366;HTU21D;67641;59.864;30.464;2023-08-06T13:31:56;40.68;12.68
78366;HTU21D;67641;59.864;30.464;2023-08-06T13:34:23;40.73;12.23
78366;HTU21D;67641;59.864;30.464;2023-08-06T13:36:50;40.59;11.91
78366;HTU21D;67641;59.864;30.464;2023-08-06T13:39:16;40.73;11.56
78366;HTU21D;67641;59.864;30.464;2023-08-06T13:41:44;40.81;11.68
78366;HTU21D;67641;59.864;30.464;2023-08-06T13:44:13;40.95;11.86
78366;HTU21D;67641;59.864;30.464;2023-08-06T13:48:40;41.27;11.94
78366;HTU21D;67641;59.864;30.464;2023-08-06T13:51:06;41.17;11.92
78366;HTU21D;67641;59.864;30.464;2023-08-06T13:53:33;41.14;11.64
78366;HTU21D;67641;59.864;30.464;2023-08-06T13:56:00;41.06;10.96
78366;HTU21D;67641;59.864;30.464;2023-08-06T13:58:27;41.00;11.60
78366;HTU21D;67641;59.864;30.464;2023-08-06T14:00:54;41.14;11.37
78366;HTU21D;67641;59.864;30.464;2023-08-06T14:03:20;41.28;11.21
78366;HTU21D;67641;59.864;30.464;2023-08-06T14:05:47;41.18;11.01
78366;HTU21D;67641;59.864;30.464;2023-08-06T14:09:59;40.86;11.66
78366;HTU21D;67641;59.864;30.464;2023-08-06T14:12:26;40.57;11.99
78366;HTU21D;67641;59.864;30.464;2023-08-06T14:14:54;40.56;11.86
78366;HTU21D;67641;59.864;30.464;2023-08-06T14:17:21;40.36;12.32
78366;HTU21D;67641;59.864;30.464;2023-08-06T14:19:47;40.31;12.78
78366;HTU21D;67641;59.864;30.464;2023-08-06T14:22:14;40.32;12.59
78366;HTU21D;67641;59.864;30.464;2023-08-06T14:24:41;40.26;12.46
78366;HTU21D;67641;59.864;30.464;2023-08-06T14:27:08;40.08;12.46
78366;HTU21D;67641;59.864;30.464;2023-08-06T14:32:28;40.04;13.16
78366;HTU21D;67641;59.864;30.464;2023-08-06T14:34:54;40.07;13.12
78366;HTU21D;67641;59.864;30.464;2023-08-06T14:37:21;40.09;12.91
78366;HTU21D;67641;59.864;30.464;2023-08-06T14:39:48;39.71;13.47
78366;HTU21D;67641;59.864;30.464;2023-08-06T14:42:15;39.72;14.07
78366;HTU21D;67641;59.864;30.464;2023-08-06T14:44:42;39.66;14.93
78366;HTU21D;67641;59.864;30.464;2023-08-06T14:47:11;39.72;14.86
78366;HTU21D;67641;59.864;30.464;2023-08-06T14:49:38;39.38;15.58
78366;HTU21D;67641;59.864;30.464;2023-08-06T14:54:38;39.22;16.96
78366;HTU21D;67641;59.864;30.464;2023-08-06T14:57:05;39.07;17.46
78366;HTU21D;67641;59.864;30.464;2023-08-06T14:59:32;38.76;18.32
78366;HTU21D;67641;59.864;30.464;2023-08-06T15:01:59;38.91;18.58
78366;HTU21D;67641;59.864;30.464;2023-08-06T15:04:26;38.76;19.44
78366;HTU21D;67641;59.864;30.464;2023-08-06T15:06:54;38.54;19.27
78366;HTU21D;67641;59.864;30.464;2023-08-06T15:09:23;38.44;19.70
78366;HTU21D;67641;59.864;30.464;2023-08-06T15:11:50;38.45;19.99
78366;HTU21D;67641;59.864;30.464;2023-08-06T15:17:13;38.59;17.93
78366;HTU21D;67641;59.864;30.464;2023-08-06T15:19:40;38.39;18.69
78366;HTU21D;67641;59.864;30.464;2023-08-06T15:22:07;38.36;18.44
78366;HTU21D;67641;59.864;30.464;2023-08-06T15:24:36;38.39;18.27
78366;HTU21D;67641;59.864;30.464;2023-08-06T15:27:10;38.44;18.35
78366;HTU21D;67641;59.864;30.464;2023-08-06T15:29:38;38.31;18.06
78366;HTU21D;67641;59.864;30.464;2023-08-06T15:32:05;38.22;18.00
78366;HTU21D;67641;59.864;30.464;2023-08-06T15:34:32;38.17;18.12
78366;HTU21D;67641;59.864;30.464;2023-08-06T15:39:54;37.78;18.67
78366;HTU21D;67641;59.864;30.464;2023-08-06T15:42:21;37.61;19.36
78366;HTU21D;67641;59.864;30.464;2023-08-06T15:44:48;37.45;18.77
78366;HTU21D;67641;59.864;30.464;2023-08-06T15:47:15;37.22;19.00
78366;HTU21D;67641;59.864;30.464;2023-08-06T15:49:42;36.99;19.02
78366;HTU21D;67641;59.864;30.464;2023-08-06T15:52:10;36.87;19.48
78366;HTU21D;67641;59.864;30.464;2023-08-06T15:54:37;36.71;20.06
78366;HTU21D;67641;59.864;30.464;2023-08-06T15:57:04;36.53;19.80
78366;HTU21D;67641;59.864;30.464;2023-08-06T16:02:16;36.31;19.79
78366;HTU21D;67641;59.864;30.464;2023-08-06T16:04:42;36.17;19.87
78366;HTU21D;67641;59.864;30.464;2023-08-06T16:07:09;36.01;20.24
78366;HTU21D;67641;59.864;30.464;2023-08-06T16:09:36;35.95;20.29
78366;HTU21D;67641;59.864;30.464;2023-08-06T16:12:03;35.82;20.44
78366;HTU21D;67641;59.864;30.464;2023-08-06T16:14:30;35.69;20.95
78366;HTU21D;67641;59.864;30.464;2023-08-06T16:16:56;35.54;20.87
78366;HTU21D;67641;59.864;30.464;2023-08-06T16:19:23;35.43;21.44
78366;HTU21D;67641;59.864;30.464;2023-08-06T16:24:29;35.24;21.82
78366;HTU21D;67641;59.864;30.464;2023-08-06T16:26:55;35.11;21.93
78366;HTU21D;67641;59.864;30.464;2023-08-06T16:29:22;35.00;21.63
78366;HTU21D;67641;59.864;30.464;2023-08-06T16:31:49;34.94;21.92
78366;HTU21D;67641;59.864;30.464;2023-08-06T16:34:15;34.83;21.69
78366;HTU21D;67641;59.864;30.464;2023-08-06T16:36:42;34.73;21.06
78366;HTU21D;67641;59.864;30.464;2023-08-06T16:39:12;34.55;21.15
78366;HTU21D;67641;59.864;30.464;2023-08-06T16:41:40;34.51;21.60
78366;HTU21D;67641;59.864;30.464;2023-08-06T16:46:41;34.20;21.68
78366;HTU21D;67641;59.864;30.464;2023-08-06T16:49:08;34.07;21.70
78366;HTU21D;67641;59.864;30.464;2023-08-06T16:51:35;34.00;22.04
78366;HTU21D;67641;59.864;30.464;2023-08-06T16:54:01;33.87;21.83
78366;HTU21D;67641;59.864;30.464;2023-08-06T16:56:28;33.75;22.29
78366;HTU21D;67641;59.864;30.464;2023-08-06T16:58:56;33.74;22.24
78366;HTU21D;67641;59.864;30.464;2023-08-06T17:01:22;33.68;22.00
78366;HTU21D;67641;59.864;30.464;2023-08-06T17:03:52;33.66;22.35
78366;HTU21D;67641;59.864;30.464;2023-08-06T17:08:01;33.52;22.64
78366;HTU21D;67641;59.864;30.464;2023-08-06T17:10:30;33.46;22.51
78366;HTU21D;67641;59.864;30.464;2023-08-06T17:12:56;33.40;23.05
78366;HTU21D;67641;59.864;30.464;2023-08-06T17:15:23;33.27;23.48
78366;HTU21D;67641;59.864;30.464;2023-08-06T17:17:50;33.13;23.22
78366;HTU21D;67641;59.864;30.464;2023-08-06T17:20:17;33.06;23.43
78366;HTU21D;67641;59.864;30.464;2023-08-06T17:22:44;32.97;23.51
78366;HTU21D;67641;59.864;30.464;2023-08-06T17:25:11;32.84;23.87
78366;HTU21D;67641;59.864;30.464;2023-08-06T17:30:10;32.67;23.16
78366;HTU21D;67641;59.864;30.464;2023-08-06T17:32:37;32.66;23.53
78366;HTU21D;67641;59.864;30.464;2023-08-06T17:35:06;32.57;23.47